Time;durP1;ratioP1;P1;durP2;ratioP2;P2;SDS_P1;SDS_P2;PMS_P1;PMS_P2;Temp;Humidity;BMP_temperature;BMP_pressure;BME280_temperature;BME280_humidity;BME280_pressure;Samples;Min_cycle;Max_cycle;Signal;HPM_P1;HPM_P2
2023/12/12 00:00:30;;;;;;;4.68;3.28;;;6.40;74.00;;;;;;5019052;28;20447;-76
2023/12/12 00:03:00;;;;;;;4.53;3.33;;;6.40;74.00;;;;;;5036680;28;20030;-77
2023/12/12 00:05:25;;;;;;;3.60;3.17;;;6.40;74.00;;;;;;5019344;28;20026;-76
2023/12/12 00:07:51;;;;;;;3.50;3.20;;;6.40;74.00;;;;;;5035111;28;20116;-76
2023/12/12 00:10:17;;;;;;;3.47;2.92;;;6.40;74.00;;;;;;5036828;28;20098;-77
2023/12/12 00:12:44;;;;;;;3.58;3.00;;;6.40;74.10;;;;;;5036404;28;20135;-76
2023/12/12 00:15:10;;;;;;;4.18;3.20;;;6.40;74.10;;;;;;5035973;28;20087;-77
2023/12/12 00:17:39;;;;;;;3.33;3.03;;;6.40;74.10;;;;;;5018056;28;20427;-76
2023/12/12 00:20:08;;;;;;;3.88;3.10;;;6.40;74.70;;;;;;5017894;28;20475;-76
2023/12/12 00:22:34;;;;;;;3.40;3.10;;;6.40;74.10;;;;;;5035839;28;20036;-76
2023/12/12 00:25:00;;;;;;;4.00;3.10;;;6.40;74.10;;;;;;5035926;28;20033;-76
2023/12/12 00:27:25;;;;;;;4.22;3.08;;;6.40;74.10;;;;;;5035446;28;20033;-77
2023/12/12 00:29:51;;;;;;;3.47;3.00;;;6.40;74.10;;;;;;5013988;28;20116;-75
2023/12/12 00:32:17;;;;;;;3.92;2.95;;;6.40;74.10;;;;;;5035322;28;20025;-76
2023/12/12 00:34:43;;;;;;;3.67;3.03;;;6.40;74.10;;;;;;5017347;28;20061;-77
2023/12/12 00:37:08;;;;;;;3.38;3.08;;;6.40;74.10;;;;;;5035602;28;20585;-77
2023/12/12 00:39:41;;;;;;;3.50;3.00;;;6.40;74.10;;;;;;5034995;28;20375;-77
2023/12/12 00:42:06;;;;;;;3.45;3.10;;;6.40;74.10;;;;;;5035057;28;20021;-76
2023/12/12 00:44:34;;;;;;;3.33;2.85;;;6.40;74.10;;;;;;5035332;28;20037;-76
2023/12/12 00:47:00;;;;;;;3.28;2.80;;;6.40;74.10;;;;;;5017533;28;20037;-76
2023/12/12 00:49:26;;;;;;;3.60;2.78;;;6.40;74.10;;;;;;5034361;28;20029;-78
2023/12/12 00:51:52;;;;;;;3.60;3.03;;;6.40;74.10;;;;;;5034783;28;20096;-77
2023/12/12 00:54:18;;;;;;;3.50;3.03;;;6.40;74.10;;;;;;5034954;28;20039;-76
2023/12/12 00:56:47;;;;;;;3.92;3.00;;;6.40;74.10;;;;;;5034848;28;20025;-78
2023/12/12 00:59:14;;;;;;;3.75;3.08;;;6.40;74.10;;;;;;5034580;28;20025;-77
2023/12/12 01:01:40;;;;;;;3.70;3.10;;;6.40;74.10;;;;;;5016891;28;20391;-78
2023/12/12 01:04:07;;;;;;;4.03;2.97;;;6.40;74.20;;;;;;5034827;28;20116;-78
2023/12/12 01:06:33;;;;;;;2.72;2.53;;;6.40;74.20;;;;;;5034647;28;20036;-77
2023/12/12 01:08:59;;;;;;;4.50;3.17;;;6.40;74.20;;;;;;5034209;28;20022;-77
2023/12/12 01:11:25;;;;;;;3.53;2.92;;;6.40;74.20;;;;;;5018650;28;20061;-77
2023/12/12 01:13:51;;;;;;;3.58;2.80;;;6.40;74.10;;;;;;5043363;28;20029;-77
2023/12/12 01:16:17;;;;;;;4.35;3.00;;;6.40;74.10;;;;;;5037749;28;20097;-77
2023/12/12 01:18:42;;;;;;;3.17;2.88;;;6.40;74.10;;;;;;5034420;28;20037;-77
2023/12/12 01:21:08;;;;;;;3.35;3.00;;;6.40;74.10;;;;;;5034695;28;20021;-77
2023/12/12 01:23:51;;;;;;;3.53;3.20;;;6.40;74.10;;;;;;5034730;28;20466;-78
2023/12/12 01:26:18;;;;;;;3.58;3.03;;;6.40;74.10;;;;;;5016162;28;20061;-78
2023/12/12 01:28:44;;;;;;;3.45;2.95;;;6.40;74.10;;;;;;5034304;28;20075;-76
2023/12/12 01:31:10;;;;;;;4.35;3.42;;;6.40;74.10;;;;;;5034017;28;20061;-77
2023/12/12 01:33:36;;;;;;;4.40;3.30;;;6.40;74.20;;;;;;5034591;28;20033;-76
2023/12/12 01:36:02;;;;;;;3.95;3.40;;;6.40;74.10;;;;;;5034441;28;20037;-77
2023/12/12 01:38:28;;;;;;;4.25;3.35;;;6.40;74.10;;;;;;5033663;28;20025;-76
2023/12/12 01:40:54;;;;;;;4.30;3.45;;;6.40;74.10;;;;;;5034344;28;20371;-78
2023/12/12 01:43:30;;;;;;;4.38;3.75;;;6.40;74.10;;;;;;5033814;28;20253;-77
2023/12/12 01:46:01;;;;;;;4.90;3.92;;;6.40;74.10;;;;;;5016364;28;20029;-77
2023/12/12 01:48:29;;;;;;;4.72;3.97;;;6.40;74.10;;;;;;5034643;28;20036;-77
2023/12/12 01:50:56;;;;;;;4.68;3.58;;;6.40;74.20;;;;;;5033847;28;20044;-77
2023/12/12 01:53:26;;;;;;;3.92;3.15;;;6.40;74.20;;;;;;5033932;28;20439;-77
2023/12/12 01:55:53;;;;;;;4.25;3.38;;;6.40;74.10;;;;;;5034026;28;20120;-77
2023/12/12 01:58:23;;;;;;;4.22;3.55;;;6.40;74.20;;;;;;5034035;28;20080;-76
2023/12/12 02:00:50;;;;;;;4.20;3.40;;;6.40;74.10;;;;;;5034238;28;20026;-77
2023/12/12 02:03:16;;;;;;;4.05;3.30;;;6.40;74.20;;;;;;5033370;28;20025;-76
2023/12/12 02:05:43;;;;;;;4.97;3.40;;;6.40;74.10;;;;;;5015204;28;20391;-77
2023/12/12 02:08:09;;;;;;;4.03;3.33;;;6.40;74.20;;;;;;5034180;28;20492;-77
2023/12/12 02:10:35;;;;;;;4.38;3.40;;;6.40;74.20;;;;;;5033883;28;20053;-77
2023/12/12 02:13:01;;;;;;;3.78;3.00;;;6.40;74.10;;;;;;5033250;28;20025;-78
2023/12/12 02:15:27;;;;;;;3.58;2.97;;;6.40;74.10;;;;;;5033391;28;20479;-77
2023/12/12 02:17:53;;;;;;;3.30;2.92;;;6.40;74.10;;;;;;5033483;28;20526;-77
2023/12/12 02:20:18;;;;;;;3.97;3.22;;;6.40;74.10;;;;;;5015937;28;20108;-77
2023/12/12 02:22:44;;;;;;;3.28;2.67;;;6.40;74.10;;;;;;5016747;28;20124;-77
2023/12/12 02:25:10;;;;;;;3.50;2.88;;;6.40;74.10;;;;;;5033011;28;20099;-77
2023/12/12 02:27:39;;;;;;;3.90;3.13;;;6.40;74.10;;;;;;5033554;28;20426;-78
2023/12/12 02:30:08;;;;;;;3.63;2.92;;;6.40;74.10;;;;;;5033341;28;20442;-78
2023/12/12 02:32:34;;;;;;;3.53;2.90;;;6.40;74.10;;;;;;5036429;28;20036;-77
2023/12/12 02:35:01;;;;;;;4.43;3.38;;;6.40;74.10;;;;;;5036966;28;20041;-77
2023/12/12 02:37:26;;;;;;;3.42;3.00;;;6.40;74.10;;;;;;5037664;28;20460;-77
2023/12/12 02:39:52;;;;;;;3.83;3.25;;;6.40;74.10;;;;;;5037745;28;20022;-77
2023/12/12 02:42:18;;;;;;;4.95;3.47;;;6.30;74.00;;;;;;5037529;28;20029;-77
2023/12/12 02:44:44;;;;;;;3.88;3.42;;;6.40;74.10;;;;;;5036853;28;20112;-76
2023/12/12 02:47:09;;;;;;;4.13;3.47;;;6.40;74.10;;;;;;5037604;28;20550;-77
2023/12/12 02:49:35;;;;;;;4.25;3.60;;;6.40;74.10;;;;;;5019520;28;20037;-76
2023/12/12 02:52:01;;;;;;;4.35;3.58;;;6.40;74.10;;;;;;5036782;28;20054;-77
2023/12/12 02:54:27;;;;;;;5.47;4.00;;;6.40;74.10;;;;;;5037211;28;20065;-77
2023/12/12 02:56:53;;;;;;;6.15;4.70;;;6.40;74.10;;;;;;5037152;28;20072;-78
2023/12/12 02:59:19;;;;;;;6.10;4.50;;;6.40;74.10;;;;;;5037189;28;20071;-77
2023/12/12 03:01:48;;;;;;;5.55;4.22;;;6.30;74.00;;;;;;5036750;28;20096;-78
2023/12/12 03:04:13;;;;;;;6.60;4.80;;;6.40;74.10;;;;;;5019672;28;20160;-77
2023/12/12 03:06:39;;;;;;;6.35;4.50;;;6.40;74.10;;;;;;5036991;28;20112;-77
2023/12/12 03:09:05;;;;;;;6.88;4.93;;;6.40;74.10;;;;;;5018793;28;20026;-77
2023/12/12 03:11:33;;;;;;;5.88;4.53;;;6.40;74.10;;;;;;5036437;28;20042;-78
2023/12/12 03:13:58;;;;;;;6.68;4.90;;;6.40;74.10;;;;;;5036792;28;20059;-77
2023/12/12 03:16:24;;;;;;;5.70;4.35;;;6.30;74.00;;;;;;5036531;28;20114;-78
2023/12/12 03:18:50;;;;;;;5.57;4.22;;;6.40;74.10;;;;;;5036774;28;20029;-77
2023/12/12 03:21:16;;;;;;;4.75;4.20;;;6.40;74.10;;;;;;5002903;28;20022;-77
2023/12/12 03:23:42;;;;;;;5.20;3.88;;;6.40;74.00;;;;;;5036220;28;20079;-77
2023/12/12 03:26:11;;;;;;;5.65;3.40;;;6.40;74.10;;;;;;5036724;28;20034;-76
2023/12/12 03:28:36;;;;;;;5.45;3.60;;;6.40;74.10;;;;;;5036466;28;20025;-77
2023/12/12 03:31:04;;;;;;;6.00;3.38;;;6.40;74.10;;;;;;5036451;28;20037;-76
2023/12/12 03:33:30;;;;;;;4.00;3.40;;;6.40;74.10;;;;;;5018503;28;20026;-77
2023/12/12 03:35:55;;;;;;;3.70;3.05;;;6.30;74.00;;;;;;5036722;28;20057;-76
2023/12/12 03:38:21;;;;;;;3.33;2.97;;;6.30;74.00;;;;;;5036346;28;20026;-77
2023/12/12 03:40:47;;;;;;;3.20;2.78;;;6.40;74.00;;;;;;5036153;28;20022;-77
2023/12/12 03:43:13;;;;;;;3.85;3.20;;;6.40;74.00;;;;;;5036342;28;20079;-77
2023/12/12 03:45:39;;;;;;;4.32;3.20;;;6.40;74.00;;;;;;5036114;28;20026;-77
2023/12/12 03:48:05;;;;;;;3.58;2.80;;;6.40;74.00;;;;;;5036368;28;20034;-77
2023/12/12 03:50:30;;;;;;;3.40;2.92;;;6.40;74.00;;;;;;5036553;28;20033;-77
2023/12/12 03:52:56;;;;;;;3.72;3.35;;;6.40;74.10;;;;;;5035781;28;20049;-77
2023/12/12 03:55:23;;;;;;;3.22;2.63;;;6.40;74.00;;;;;;5036162;28;20029;-77
2023/12/12 03:57:49;;;;;;;3.47;2.80;;;6.30;73.90;;;;;;5036189;28;20033;-77
2023/12/12 04:00:15;;;;;;;4.35;3.10;;;6.40;74.00;;;;;;5001198;28;20021;-78
2023/12/12 04:02:41;;;;;;;2.85;2.58;;;6.40;73.90;;;;;;5018426;28;20036;-78
2023/12/12 04:05:10;;;;;;;2.85;2.55;;;6.40;73.90;;;;;;5036070;28;20030;-78
2023/12/12 04:07:37;;;;;;;2.70;2.50;;;6.40;73.80;;;;;;5036071;28;20100;-77
2023/12/12 04:10:06;;;;;;;4.25;3.30;;;6.40;73.80;;;;;;5017981;28;20437;-77
2023/12/12 04:12:35;;;;;;;4.00;3.00;;;6.40;73.80;;;;;;5035841;28;20029;-77
2023/12/12 04:15:01;;;;;;;4.15;3.30;;;6.40;73.70;;;;;;5018005;28;20039;-78
2023/12/12 04:17:27;;;;;;;3.80;3.10;;;6.40;73.70;;;;;;5035792;28;20026;-77
2023/12/12 04:19:53;;;;;;;3.83;3.22;;;6.40;73.70;;;;;;5035510;28;20021;-77
2023/12/12 04:22:19;;;;;;;3.88;3.45;;;6.40;73.70;;;;;;5035923;28;20041;-78
2023/12/12 04:24:44;;;;;;;4.70;3.45;;;6.40;73.70;;;;;;5017712;28;20029;-79
2023/12/12 04:27:10;;;;;;;3.85;3.00;;;6.40;73.70;;;;;;5035672;28;20112;-78
2023/12/12 04:29:36;;;;;;;4.25;3.28;;;6.40;73.60;;;;;;5034720;28;20369;-77
2023/12/12 04:32:02;;;;;;;3.78;3.28;;;6.40;73.60;;;;;;5035137;28;20030;-79
2023/12/12 04:34:31;;;;;;;4.40;3.22;;;6.40;73.50;;;;;;5017658;28;20507;-78
2023/12/12 04:36:57;;;;;;;4.85;3.42;;;6.40;73.60;;;;;;5034800;28;20357;-78
2023/12/12 04:39:23;;;;;;;5.30;3.90;;;6.40;73.50;;;;;;5035193;28;20040;-77
2023/12/12 04:41:50;;;;;;;5.13;3.92;;;6.40;73.50;;;;;;5034263;28;20036;-78
2023/12/12 04:44:16;;;;;;;5.38;3.95;;;6.40;73.50;;;;;;5017173;28;20029;-78
2023/12/12 04:46:42;;;;;;;5.53;4.03;;;6.40;73.50;;;;;;5035275;28;20124;-77
2023/12/12 04:49:08;;;;;;;6.22;4.18;;;6.40;73.40;;;;;;5017333;28;20022;-78
2023/12/12 04:51:33;;;;;;;5.28;3.67;;;6.40;73.40;;;;;;5034644;28;20041;-77
2023/12/12 04:53:59;;;;;;;4.30;3.35;;;6.40;73.40;;;;;;5034578;28;20375;-78
2023/12/12 04:56:25;;;;;;;5.10;3.65;;;6.40;73.40;;;;;;5034437;28;20042;-78
2023/12/12 04:58:51;;;;;;;4.95;3.63;;;6.40;73.40;;;;;;5017130;28;20083;-78
2023/12/12 05:01:18;;;;;;;5.05;3.75;;;6.30;73.30;;;;;;5034775;28;20032;-77
2023/12/12 05:03:44;;;;;;;5.07;3.80;;;6.30;73.40;;;;;;5016221;28;20112;-79
2023/12/12 05:06:10;;;;;;;5.85;3.90;;;6.40;73.40;;;;;;5034605;28;20113;-78
2023/12/12 05:08:36;;;;;;;5.30;3.80;;;6.40;73.40;;;;;;5016726;28;20053;-78
2023/12/12 05:11:04;;;;;;;4.82;3.38;;;6.40;73.40;;;;;;5034552;28;20032;-78
2023/12/12 05:13:30;;;;;;;5.15;3.72;;;6.30;73.30;;;;;;5034770;28;20029;-79
2023/12/12 05:15:56;;;;;;;5.03;3.92;;;6.30;73.20;;;;;;5034697;28;20460;-77
2023/12/12 05:18:21;;;;;;;6.65;4.43;;;6.30;73.20;;;;;;5017145;28;20029;-77
2023/12/12 05:20:48;;;;;;;6.40;4.60;;;6.30;73.20;;;;;;5034382;28;20481;-78
2023/12/12 05:23:13;;;;;;;5.80;4.10;;;6.30;73.20;;;;;;5034753;28;20029;-77
2023/12/12 05:25:42;;;;;;;5.63;4.25;;;6.30;73.20;;;;;;5034758;28;20459;-79
2023/12/12 05:28:08;;;;;;;5.68;4.22;;;6.30;73.20;;;;;;5016207;28;20033;-78
2023/12/12 05:30:34;;;;;;;6.20;4.28;;;6.30;73.50;;;;;;5034415;28;20029;-78
2023/12/12 05:33:00;;;;;;;5.57;4.15;;;6.30;73.30;;;;;;5033704;28;20522;-78
2023/12/12 05:35:26;;;;;;;6.35;4.65;;;6.30;73.20;;;;;;5032661;28;20022;-78
2023/12/12 05:37:52;;;;;;;4.50;3.63;;;6.30;73.20;;;;;;5040405;28;20031;-78
2023/12/12 05:40:17;;;;;;;5.25;4.07;;;6.20;73.20;;;;;;5038485;28;20031;-77
2023/12/12 05:42:43;;;;;;;5.85;4.40;;;6.30;73.20;;;;;;5016966;28;20121;-79
2023/12/12 05:45:09;;;;;;;5.15;3.92;;;6.20;73.20;;;;;;5033935;28;20037;-78
2023/12/12 05:47:35;;;;;;;6.53;4.57;;;6.20;73.20;;;;;;5016269;28;20049;-78
2023/12/12 05:50:02;;;;;;;5.68;4.05;;;6.20;73.20;;;;;;5035197;28;20029;-79
2023/12/12 05:52:28;;;;;;;6.95;4.38;;;6.20;73.10;;;;;;5035381;28;20072;-79
2023/12/12 05:54:54;;;;;;;5.80;3.90;;;6.20;73.10;;;;;;5035033;28;20033;-78
2023/12/12 05:57:20;;;;;;;5.13;3.80;;;6.20;73.10;;;;;;5035264;28;20031;-78
2023/12/12 05:59:47;;;;;;;5.40;3.70;;;6.20;73.10;;;;;;5035982;28;20029;-77
2023/12/12 06:02:13;;;;;;;6.20;4.50;;;6.20;73.00;;;;;;5034891;28;20144;-80
2023/12/12 06:04:38;;;;;;;6.25;4.43;;;6.20;73.00;;;;;;5033612;28;20029;-79
2023/12/12 06:07:05;;;;;;;7.20;4.60;;;6.30;73.10;;;;;;5033562;28;20029;-79
2023/12/12 06:09:31;;;;;;;5.45;4.15;;;6.20;73.00;;;;;;5016043;28;20036;-78
2023/12/12 06:11:58;;;;;;;5.63;4.75;;;6.30;73.10;;;;;;5033224;28;20065;-79
2023/12/12 06:14:25;;;;;;;6.47;4.68;;;6.30;73.00;;;;;;5033211;28;20463;-79
2023/12/12 06:16:50;;;;;;;6.38;4.30;;;6.30;73.00;;;;;;5015791;28;20040;-79
2023/12/12 06:19:16;;;;;;;7.18;4.85;;;6.30;73.00;;;;;;5033582;28;20026;-81
2023/12/12 06:21:42;;;;;;;6.75;4.28;;;6.30;72.90;;;;;;5015351;28;20021;-78
2023/12/12 06:24:08;;;;;;;6.40;4.35;;;6.30;72.90;;;;;;5033829;28;20036;-78
2023/12/12 06:26:34;;;;;;;6.30;4.75;;;6.30;72.80;;;;;;5034324;28;20451;-79
2023/12/12 06:29:00;;;;;;;10.35;4.07;;;6.30;72.70;;;;;;5032031;28;20025;-79
2023/12/12 06:31:25;;;;;;;6.57;4.43;;;6.30;72.80;;;;;;5033184;28;20033;-78
2023/12/12 06:33:52;;;;;;;6.07;4.15;;;6.30;72.70;;;;;;5014515;28;20537;-78
2023/12/12 06:36:18;;;;;;;5.63;3.90;;;6.30;72.70;;;;;;5033374;28;20026;-78
2023/12/12 06:38:43;;;;;;;6.00;4.03;;;6.30;72.80;;;;;;5014426;28;20037;-79
2023/12/12 06:41:09;;;;;;;6.05;4.38;;;6.20;72.70;;;;;;5014777;28;20040;-79
2023/12/12 06:43:35;;;;;;;4.90;3.80;;;6.30;72.70;;;;;;5032595;28;20022;-79
2023/12/12 06:46:02;;;;;;;5.88;3.95;;;6.20;72.70;;;;;;5015767;28;20144;-79
2023/12/12 06:48:28;;;;;;;5.82;3.95;;;6.20;72.60;;;;;;5033119;28;20404;-79
2023/12/12 06:50:53;;;;;;;5.18;3.67;;;6.30;72.60;;;;;;5015011;28;20029;-75
2023/12/12 06:53:19;;;;;;;5.25;3.67;;;6.30;72.60;;;;;;5032738;28;20057;-82
2023/12/12 06:55:47;;;;;;;5.70;3.97;;;6.30;72.60;;;;;;5015024;28;20068;-84
2023/12/12 06:58:16;;;;;;;5.93;4.30;;;6.30;72.60;;;;;;5017739;28;20064;-84
2023/12/12 07:00:43;;;;;;;4.95;3.95;;;6.30;72.50;;;;;;5040229;28;20083;-83
2023/12/12 07:03:12;;;;;;;5.55;4.10;;;6.30;72.40;;;;;;5038851;28;20060;-77
2023/12/12 07:05:38;;;;;;;5.28;4.15;;;6.30;72.40;;;;;;5033884;28;20383;-78
2023/12/12 07:08:04;;;;;;;4.57;3.67;;;6.30;72.30;;;;;;5017274;28;20030;-81
2023/12/12 07:10:31;;;;;;;4.85;3.92;;;6.30;72.30;;;;;;5033638;28;20095;-78
2023/12/12 07:12:57;;;;;;;5.22;4.00;;;6.30;72.30;;;;;;5016004;28;20390;-77
2023/12/12 07:15:25;;;;;;;4.45;3.67;;;6.30;72.20;;;;;;5033018;28;20068;-75
2023/12/12 07:17:51;;;;;;;4.50;3.78;;;6.30;72.20;;;;;;5034973;28;20030;-76
2023/12/12 07:20:16;;;;;;;5.70;3.78;;;6.30;72.10;;;;;;5036369;28;20030;-75
2023/12/12 07:22:43;;;;;;;4.65;3.53;;;6.30;72.10;;;;;;5036998;28;20026;-81
2023/12/12 07:25:09;;;;;;;4.13;3.40;;;6.30;72.10;;;;;;5036922;28;20036;-77
2023/12/12 07:27:34;;;;;;;4.75;3.65;;;6.30;72.10;;;;;;5036548;28;20030;-77
2023/12/12 07:30:00;;;;;;;4.50;3.47;;;6.30;72.00;;;;;;5018742;28;20031;-76
2023/12/12 07:32:26;;;;;;;4.22;3.17;;;6.30;72.00;;;;;;5036448;28;20033;-74
2023/12/12 07:34:53;;;;;;;4.93;3.90;;;6.30;71.90;;;;;;5001303;28;20128;-78
2023/12/12 07:37:19;;;;;;;3.17;2.80;;;6.30;71.90;;;;;;5034385;28;20383;-74
2023/12/12 07:39:45;;;;;;;4.20;3.20;;;6.30;71.90;;;;;;5035782;28;20026;-78
2023/12/12 07:42:11;;;;;;;3.90;3.17;;;6.30;71.70;;;;;;5018253;28;20084;-78
2023/12/12 07:44:40;;;;;;;4.20;3.28;;;6.40;71.70;;;;;;5035332;28;20037;-81
2023/12/12 07:47:08;;;;;;;4.30;3.38;;;6.40;71.70;;;;;;5031783;28;20406;-74
2023/12/12 07:49:34;;;;;;;3.60;2.83;;;6.40;71.50;;;;;;5016448;28;20079;-78
2023/12/12 07:52:00;;;;;;;3.95;3.42;;;6.40;71.40;;;;;;5013981;28;20622;-77
2023/12/12 07:54:25;;;;;;;5.30;3.25;;;6.40;71.40;;;;;;5017892;28;20085;-76
2023/12/12 07:56:51;;;;;;;3.95;3.40;;;6.40;71.40;;;;;;5005631;28;20026;-79
2023/12/12 07:59:20;;;;;;;4.28;3.25;;;6.40;71.30;;;;;;5013025;28;20026;-74
2023/12/12 08:01:46;;;;;;;4.30;3.40;;;6.50;71.90;;;;;;5016228;28;20426;-75
2023/12/12 08:04:11;;;;;;;4.55;3.20;;;6.50;71.30;;;;;;5021116;28;20037;-77
2023/12/12 08:06:37;;;;;;;4.03;3.15;;;6.50;71.20;;;;;;5015700;28;20026;-81
2023/12/12 08:09:03;;;;;;;4.57;3.45;;;6.50;71.10;;;;;;5035395;28;20072;-78
2023/12/12 08:11:29;;;;;;;5.90;3.47;;;6.50;71.00;;;;;;5018328;28;20475;-77
2023/12/12 08:13:55;;;;;;;5.10;3.70;;;6.50;71.00;;;;;;5035625;28;20025;-85
2023/12/12 08:16:24;;;;;;;5.25;3.80;;;6.50;70.90;;;;;;5035218;28;20112;-79
2023/12/12 08:18:50;;;;;;;4.78;3.55;;;6.50;70.90;;;;;;5017295;28;20036;-80
2023/12/12 08:21:17;;;;;;;5.07;3.95;;;6.50;70.80;;;;;;5034946;28;20391;-73
2023/12/12 08:23:43;;;;;;;5.97;4.03;;;6.50;70.80;;;;;;5016841;28;20025;-80
2023/12/12 08:26:10;;;;;;;5.95;3.65;;;6.50;70.80;;;;;;5016904;28;20030;-89
2023/12/12 08:28:36;;;;;;;5.20;4.05;;;6.50;70.70;;;;;;5015220;28;20033;-86
2023/12/12 08:31:02;;;;;;;5.32;3.85;;;6.50;70.70;;;;;;5033959;28;20036;-80
2023/12/12 08:33:28;;;;;;;5.13;3.70;;;6.50;70.60;;;;;;5016604;28;20041;-80
2023/12/12 08:35:54;;;;;;;5.40;3.83;;;6.50;70.50;;;;;;5034524;28;20478;-79
2023/12/12 08:38:20;;;;;;;5.32;4.05;;;6.50;70.50;;;;;;5016593;28;20040;-86
2023/12/12 08:40:45;;;;;;;5.78;4.20;;;6.50;70.50;;;;;;5017357;28;20040;-76
2023/12/12 08:43:11;;;;;;;5.57;3.80;;;6.50;70.40;;;;;;5034321;28;20471;-82
2023/12/12 08:45:37;;;;;;;4.85;4.13;;;6.50;70.40;;;;;;5018809;28;20025;-79
2023/12/12 08:48:03;;;;;;;5.28;3.75;;;6.50;70.30;;;;;;5017313;28;20029;-86
2023/12/12 08:50:29;;;;;;;5.68;4.13;;;6.50;70.20;;;;;;5017788;28;20037;-82
2023/12/12 08:52:55;;;;;;;4.82;3.72;;;6.40;70.20;;;;;;5035779;28;20052;-80
2023/12/12 08:55:20;;;;;;;5.28;3.95;;;6.40;70.20;;;;;;5016122;28;20391;-80
2023/12/12 08:57:47;;;;;;;5.03;4.00;;;6.40;70.20;;;;;;5033134;28;20032;-83
2023/12/12 09:00:13;;;;;;;4.07;3.42;;;6.40;70.20;;;;;;5035108;28;20059;-82
2023/12/12 09:02:39;;;;;;;4.95;3.50;;;6.40;70.10;;;;;;5028861;28;20121;-84
2023/12/12 09:05:07;;;;;;;5.32;3.97;;;6.40;70.10;;;;;;5034981;28;20025;-85
2023/12/12 09:07:33;;;;;;;4.80;3.30;;;6.40;70.10;;;;;;5016820;28;20057;-79
2023/12/12 09:10:03;;;;;;;5.20;3.85;;;6.40;70.00;;;;;;5015752;28;20018;-79
2023/12/12 09:12:29;;;;;;;5.65;3.85;;;6.50;70.10;;;;;;5034266;28;20498;-79
2023/12/12 09:14:55;;;;;;;4.60;3.80;;;6.50;70.00;;;;;;5016138;28;20025;-76
2023/12/12 09:17:21;;;;;;;4.60;3.90;;;6.50;69.90;;;;;;5034043;28;20041;-79
2023/12/12 09:19:46;;;;;;;4.82;3.60;;;6.50;69.90;;;;;;5016466;28;20044;-76
2023/12/12 09:22:12;;;;;;;6.13;4.13;;;6.50;69.80;;;;;;5016698;28;20037;-77
2023/12/12 09:24:38;;;;;;;4.55;3.60;;;6.50;69.80;;;;;;5033609;28;20161;-79
2023/12/12 09:27:04;;;;;;;5.57;4.07;;;6.60;69.80;;;;;;5033607;28;20072;-78
2023/12/12 09:29:30;;;;;;;5.18;3.40;;;6.60;69.70;;;;;;5032894;28;20569;-80
2023/12/12 09:31:59;;;;;;;5.53;3.70;;;6.60;69.70;;;;;;5016272;28;20128;-78
2023/12/12 09:34:25;;;;;;;4.85;3.60;;;6.50;69.60;;;;;;5033848;28;20025;-80
2023/12/12 09:36:51;;;;;;;5.75;3.80;;;6.50;69.50;;;;;;5033850;28;20395;-79
2023/12/12 09:39:17;;;;;;;5.40;3.63;;;6.50;69.50;;;;;;5015465;28;20097;-81
2023/12/12 09:41:49;;;;;;;5.88;3.88;;;6.60;69.50;;;;;;5030629;28;20026;-79
2023/12/12 09:44:17;;;;;;;4.85;3.58;;;6.60;69.50;;;;;;5015560;28;20030;-79
2023/12/12 09:46:43;;;;;;;4.93;3.60;;;6.60;69.50;;;;;;5032095;28;20030;-76
2023/12/12 09:49:11;;;;;;;4.35;3.53;;;6.60;69.40;;;;;;5031637;28;20061;-77
2023/12/12 09:51:40;;;;;;;5.22;3.88;;;6.60;69.40;;;;;;5014419;28;20077;-76
2023/12/12 09:54:07;;;;;;;5.75;4.00;;;6.60;69.30;;;;;;5029698;28;20103;-74
2023/12/12 09:56:40;;;;;;;4.75;3.65;;;6.60;69.20;;;;;;5034677;28;20029;-76
2023/12/12 09:59:06;;;;;;;6.07;4.00;;;6.60;69.20;;;;;;5016116;28;20480;-74
2023/12/12 10:01:35;;;;;;;5.50;3.95;;;6.60;69.20;;;;;;5033327;28;20113;-77
2023/12/12 10:04:05;;;;;;;6.47;4.18;;;6.60;69.10;;;;;;5015636;28;20029;-79
2023/12/12 10:06:42;;;;;;;4.20;3.40;;;6.60;69.20;;;;;;5007407;28;20040;-73
2023/12/12 10:09:09;;;;;;;5.28;3.53;;;6.60;69.20;;;;;;5032187;28;20025;-73
2023/12/12 10:11:35;;;;;;;5.20;4.07;;;6.60;69.10;;;;;;5014243;28;20049;-75
2023/12/12 10:14:01;;;;;;;6.28;3.88;;;6.60;69.10;;;;;;5033607;28;20437;-75
2023/12/12 10:16:30;;;;;;;5.00;3.67;;;6.60;69.10;;;;;;5033466;28;20028;-77
2023/12/12 10:19:01;;;;;;;5.65;3.80;;;6.60;69.00;;;;;;5014156;28;20061;-77
2023/12/12 10:21:28;;;;;;;5.57;4.28;;;6.60;69.00;;;;;;5033320;28;20395;-75
2023/12/12 10:23:54;;;;;;;10.25;5.50;;;6.60;69.00;;;;;;5032435;28;20084;-76
2023/12/12 10:26:26;;;;;;;10.63;5.53;;;6.60;70.30;;;;;;5032568;28;20100;-76
2023/12/12 10:28:54;;;;;;;9.18;5.70;;;6.80;70.60;;;;;;5014888;28;20427;-77
2023/12/12 10:31:20;;;;;;;7.47;4.70;;;6.80;70.50;;;;;;5016818;28;20025;-77
2023/12/12 10:33:50;;;;;;;9.45;5.10;;;6.80;70.40;;;;;;5032839;28;20037;-82
2023/12/12 10:36:16;;;;;;;6.85;4.70;;;6.90;70.30;;;;;;5038446;28;20029;-81
2023/12/12 10:38:42;;;;;;;7.32;4.70;;;6.90;70.10;;;;;;5016635;28;20045;-80
2023/12/12 10:41:12;;;;;;;7.45;5.13;;;7.00;70.10;;;;;;5016013;28;20025;-78
2023/12/12 10:43:40;;;;;;;8.02;5.35;;;6.90;70.00;;;;;;5015593;28;20401;-80
2023/12/12 10:46:13;;;;;;;6.85;4.47;;;7.00;69.90;;;;;;5015954;28;20029;-83
2023/12/12 10:48:44;;;;;;;7.32;4.82;;;6.90;69.80;;;;;;5033338;28;20026;-80
2023/12/12 10:51:11;;;;;;;6.38;4.30;;;7.00;69.80;;;;;;5015451;28;20029;-78
2023/12/12 10:53:37;;;;;;;5.80;4.55;;;7.00;69.80;;;;;;5016711;28;20056;-77
2023/12/12 10:56:05;;;;;;;6.72;4.20;;;7.00;69.70;;;;;;5036643;28;20048;-80
2023/12/12 10:58:36;;;;;;;6.13;4.18;;;7.00;69.60;;;;;;5037172;28;20438;-76
2023/12/12 11:01:02;;;;;;;6.60;4.18;;;7.00;69.50;;;;;;5037059;28;20048;-72
2023/12/12 11:03:33;;;;;;;5.82;4.20;;;7.00;69.40;;;;;;5019193;28;20037;-74
2023/12/12 11:05:59;;;;;;;5.97;4.30;;;7.10;69.40;;;;;;5019181;28;20036;-71
2023/12/12 11:08:27;;;;;;;6.75;4.20;;;7.10;69.30;;;;;;5019389;28;20103;-73
2023/12/12 11:10:54;;;;;;;5.70;4.20;;;7.10;69.30;;;;;;5019367;28;20117;-72
2023/12/12 11:13:22;;;;;;;5.70;4.28;;;7.00;69.10;;;;;;5035466;28;20090;-72
2023/12/12 11:15:49;;;;;;;6.15;4.30;;;7.00;69.10;;;;;;5035266;28;20032;-72
2023/12/12 11:18:15;;;;;;;5.95;3.92;;;7.00;69.20;;;;;;5017780;28;20446;-72
2023/12/12 11:20:41;;;;;;;5.78;3.90;;;7.00;69.10;;;;;;5017078;28;20040;-72
2023/12/12 11:23:07;;;;;;;6.13;4.15;;;7.00;69.10;;;;;;5035461;28;20482;-76
2023/12/12 11:25:40;;;;;;;8.73;5.43;;;7.00;69.00;;;;;;5009558;28;20029;-75
2023/12/12 11:28:06;;;;;;;7.72;5.35;;;7.00;70.40;;;;;;5035755;28;20078;-73
2023/12/12 11:30:39;;;;;;;8.52;5.40;;;7.00;70.60;;;;;;5017391;28;20022;-72
2023/12/12 11:33:09;;;;;;;7.93;5.25;;;7.10;70.60;;;;;;5037792;28;20025;-73
2023/12/12 11:36:47;;;;;;;7.70;4.90;;;7.10;70.50;;;;;;5037035;28;20025;-74
2023/12/12 11:39:44;;;;;;;9.57;5.47;;;7.10;70.40;;;;;;5046475;28;20030;-72
2023/12/12 11:42:26;;;;;;;6.53;4.50;;;7.10;70.20;;;;;;5036448;28;20033;-76
2023/12/12 11:44:54;;;;;;;7.25;4.80;;;7.10;70.00;;;;;;5036308;28;20459;-75
2023/12/12 11:47:23;;;;;;;11.85;6.15;;;7.10;69.90;;;;;;5018673;28;20485;-74
2023/12/12 11:49:49;;;;;;;10.15;5.72;;;7.10;71.20;;;;;;5036462;28;20406;-73
2023/12/12 11:52:37;;;;;;;9.35;5.45;;;7.20;72.60;;;;;;5018389;28;20045;-74
2023/12/12 11:55:03;;;;;;;8.80;5.07;;;7.30;72.60;;;;;;5036582;28;20098;-74
2023/12/12 11:57:29;;;;;;;9.85;4.97;;;7.40;72.10;;;;;;5035838;28;20126;-76
2023/12/12 11:59:58;;;;;;;8.48;5.10;;;7.40;71.90;;;;;;5035949;28;20057;-71
2023/12/12 12:02:27;;;;;;;8.63;5.20;;;7.50;71.70;;;;;;5035872;28;20502;-72
2023/12/12 12:04:53;;;;;;;8.48;5.18;;;7.50;71.60;;;;;;5034825;28;20025;-73
2023/12/12 12:07:19;;;;;;;7.35;4.72;;;7.40;71.30;;;;;;5035889;28;20025;-73
2023/12/12 12:09:50;;;;;;;8.85;5.50;;;7.40;71.20;;;;;;5035583;28;20152;-71
2023/12/12 12:12:17;;;;;;;7.65;4.28;;;7.40;71.10;;;;;;5018713;28;20040;-72
2023/12/12 12:14:42;;;;;;;7.30;4.75;;;7.30;71.00;;;;;;5018249;28;20352;-71
2023/12/12 12:17:09;;;;;;;5.95;4.15;;;7.30;70.90;;;;;;5018037;28;20033;-75
2023/12/12 12:19:37;;;;;;;7.10;4.50;;;7.20;70.80;;;;;;5035730;28;20030;-74
2023/12/12 12:22:13;;;;;;;6.90;4.40;;;7.20;70.80;;;;;;5018214;28;20386;-73
2023/12/12 12:24:44;;;;;;;5.57;4.07;;;7.10;70.70;;;;;;5035065;28;20037;-74
2023/12/12 12:27:10;;;;;;;6.55;4.50;;;7.10;70.70;;;;;;5018011;28;20030;-72
2023/12/12 12:29:36;;;;;;;6.18;4.05;;;7.00;70.60;;;;;;5035997;28;20517;-73
2023/12/12 12:32:17;;;;;;;6.38;4.35;;;7.00;70.60;;;;;;5035670;28;20083;-73
2023/12/12 12:34:43;;;;;;;5.88;4.18;;;6.90;70.50;;;;;;5017537;28;20031;-71
2023/12/12 12:37:34;;;;;;;6.68;4.25;;;6.90;70.50;;;;;;5035545;28;20033;-73
2023/12/12 12:40:05;;;;;;;6.07;4.10;;;6.80;70.30;;;;;;5035310;28;20053;-73
2023/12/12 12:42:35;;;;;;;5.53;3.92;;;6.80;70.40;;;;;;5017697;28;20116;-71
2023/12/12 12:45:05;;;;;;;5.38;3.85;;;6.80;70.40;;;;;;5017613;28;20120;-72
2023/12/12 12:47:32;;;;;;;5.38;4.20;;;6.70;70.40;;;;;;5035288;28;20029;-71
2023/12/12 12:49:58;;;;;;;6.38;4.22;;;6.70;70.40;;;;;;5034489;28;20021;-73
2023/12/12 12:52:25;;;;;;;5.95;4.18;;;6.70;70.40;;;;;;5032903;28;20056;-73
2023/12/12 12:54:51;;;;;;;6.47;3.95;;;6.70;70.40;;;;;;5033422;28;20455;-72
2023/12/12 12:57:16;;;;;;;6.18;4.20;;;6.60;70.30;;;;;;5033233;28;20029;-72